createdAt,value
2018-06-27T00:01:14.641Z,1.73
2018-06-27T00:03:43.601Z,1.60
2018-06-27T00:06:12.133Z,1.50
2018-06-27T00:08:40.506Z,1.97
2018-06-27T00:11:09.076Z,1.90
2018-06-27T00:13:37.397Z,2.53
2018-06-27T00:16:05.920Z,1.77
2018-06-27T00:18:34.384Z,3.03
2018-06-27T00:21:03.217Z,3.10
2018-06-27T00:23:31.597Z,1.60
2018-06-27T00:26:01.769Z,1.67
2018-06-27T00:28:30.201Z,1.80
2018-06-27T00:31:00.787Z,1.90
2018-06-27T00:33:29.218Z,1.83
2018-06-27T00:35:57.761Z,1.73
2018-06-27T00:38:26.265Z,1.70
2018-06-27T00:40:54.682Z,1.60
2018-06-27T00:43:23.196Z,1.53
2018-06-27T00:45:51.701Z,1.67
2018-06-27T00:48:20.090Z,2.30
2018-06-27T00:50:48.549Z,1.57
2018-06-27T00:53:16.913Z,1.87
2018-06-27T00:55:45.360Z,1.57
2018-06-27T00:58:13.883Z,1.53
2018-06-27T01:00:42.049Z,1.83
2018-06-27T01:03:10.552Z,2.10
2018-06-27T01:05:39.006Z,1.97
2018-06-27T01:08:07.404Z,1.67
2018-06-27T01:10:35.511Z,1.50
2018-06-27T01:13:04.027Z,2.43
2018-06-27T01:15:32.518Z,1.60
2018-06-27T01:18:01.061Z,1.50
2018-06-27T01:20:29.537Z,1.50
2018-06-27T01:22:58.071Z,1.50
2018-06-27T01:25:26.504Z,2.63
2018-06-27T01:27:54.901Z,1.60
2018-06-27T01:30:24.607Z,1.80
2018-06-27T01:32:52.985Z,1.60
2018-06-27T01:35:21.621Z,1.60
2018-06-27T01:37:50.095Z,2.87
2018-06-27T01:40:18.591Z,3.00
2018-06-27T01:42:47.217Z,1.50
2018-06-27T01:45:15.640Z,1.57
2018-06-27T01:47:44.188Z,1.87
2018-06-27T01:50:12.642Z,2.40
2018-06-27T01:52:41.120Z,1.33
2018-06-27T01:55:09.585Z,1.67
2018-06-27T01:57:37.997Z,1.70
2018-06-27T02:00:07.673Z,4.00
2018-06-27T02:02:36.153Z,1.43
2018-06-27T02:05:04.736Z,1.47
2018-06-27T02:07:33.276Z,1.60
2018-06-27T02:10:01.788Z,1.43
2018-06-27T02:12:30.296Z,1.60
2018-06-27T02:14:58.749Z,1.70
2018-06-27T02:17:27.263Z,1.93
2018-06-27T02:19:55.680Z,1.63
2018-06-27T02:22:24.141Z,1.77
2018-06-27T02:24:52.635Z,1.90
2018-06-27T02:27:21.100Z,1.80
2018-06-27T02:29:49.535Z,1.53
2018-06-27T02:32:17.914Z,1.40
2018-06-27T02:34:46.413Z,1.57
2018-06-27T02:37:14.872Z,1.50
2018-06-27T02:39:43.305Z,1.50
2018-06-27T02:42:11.832Z,1.50
2018-06-27T02:44:40.272Z,1.43
2018-06-27T02:47:08.695Z,1.57
2018-06-27T02:49:37.137Z,1.60
2018-06-27T02:52:05.544Z,1.47
2018-06-27T02:54:34.020Z,1.50
2018-06-27T02:57:02.449Z,1.40
2018-06-27T02:59:30.845Z,1.57
2018-06-27T03:01:59.192Z,1.70
2018-06-27T03:04:27.622Z,1.50
2018-06-27T03:06:56.033Z,1.50
2018-06-27T03:09:24.584Z,1.53
2018-06-27T03:11:53.018Z,1.40
2018-06-27T03:14:23.513Z,2.20
2018-06-27T03:16:51.936Z,1.60
2018-06-27T03:19:20.425Z,1.80
2018-06-27T03:21:48.784Z,1.70
2018-06-27T03:24:17.128Z,2.00
2018-06-27T03:26:45.531Z,1.80
2018-06-27T03:29:14.006Z,3.33
2018-06-27T03:31:42.343Z,2.27
2018-06-27T03:34:10.812Z,1.73
2018-06-27T03:36:39.337Z,1.60
2018-06-27T03:39:08.740Z,1.87
2018-06-27T03:41:37.237Z,1.70
2018-06-27T03:44:05.982Z,1.67
2018-06-27T03:46:34.483Z,1.60
2018-06-27T03:49:03.045Z,1.70
2018-06-27T03:51:31.462Z,2.23
2018-06-27T03:54:00.089Z,1.80
2018-06-27T03:56:28.877Z,3.30
2018-06-27T03:58:57.493Z,2.17
2018-06-27T04:01:25.932Z,1.50
2018-06-27T04:03:54.559Z,1.90
2018-06-27T04:06:23.065Z,1.53
2018-06-27T04:08:51.615Z,1.70
2018-06-27T04:11:22.784Z,1.50
2018-06-27T04:13:51.216Z,2.67
2018-06-27T04:16:19.548Z,1.87
2018-06-27T04:18:47.977Z,1.93
2018-06-27T04:21:16.365Z,1.70
2018-06-27T04:23:44.858Z,6.00
2018-06-27T04:26:13.268Z,2.03
2018-06-27T04:28:41.692Z,3.03
2018-06-27T04:31:10.233Z,4.80
2018-06-27T04:33:38.728Z,1.73
2018-06-27T04:36:07.256Z,3.10
2018-06-27T04:38:35.780Z,1.73
2018-06-27T04:41:04.819Z,1.90
2018-06-27T04:43:33.361Z,1.70
2018-06-27T04:46:03.424Z,3.73
2018-06-27T04:48:31.910Z,2.53
2018-06-27T04:51:00.269Z,2.83
2018-06-27T04:53:28.676Z,3.53
2018-06-27T04:55:57.149Z,2.30
2018-06-27T04:58:25.657Z,1.80
2018-06-27T05:00:54.131Z,2.03
2018-06-27T05:03:22.514Z,1.60
2018-06-27T05:05:50.836Z,1.67
2018-06-27T05:08:18.919Z,2.40
2018-06-27T05:10:47.289Z,1.90
2018-06-27T05:13:15.624Z,2.10
2018-06-27T05:15:43.849Z,2.27
2018-06-27T05:18:12.241Z,2.20
2018-06-27T05:20:40.719Z,1.83
2018-06-27T05:23:08.908Z,1.80
2018-06-27T05:25:37.368Z,2.07
2018-06-27T05:28:05.872Z,2.07
2018-06-27T05:30:34.218Z,1.97
2018-06-27T05:33:02.710Z,4.30
2018-06-27T05:35:31.248Z,2.40
2018-06-27T05:37:59.584Z,2.40
2018-06-27T05:40:27.833Z,3.40
2018-06-27T05:42:56.269Z,4.27
2018-06-27T05:45:24.860Z,2.63
2018-06-27T05:47:53.259Z,2.73
2018-06-27T05:50:21.797Z,3.00
2018-06-27T05:52:50.271Z,2.40
2018-06-27T05:55:18.573Z,2.00
2018-06-27T05:57:47.125Z,3.33
2018-06-27T06:00:15.557Z,1.90
2018-06-27T06:02:44.093Z,2.60
2018-06-27T06:05:12.144Z,2.07
2018-06-27T06:07:40.554Z,4.27
2018-06-27T06:10:09.048Z,2.60
2018-06-27T06:12:37.494Z,2.60
2018-06-27T06:15:06.017Z,3.77
2018-06-27T06:17:34.444Z,2.40
2018-06-27T06:20:03.000Z,3.27
2018-06-27T06:22:31.509Z,3.73
2018-06-27T06:24:59.994Z,3.07
2018-06-27T06:27:28.444Z,2.67
2018-06-27T06:29:57.016Z,3.80
2018-06-27T06:32:25.262Z,4.63
2018-06-27T06:34:53.748Z,4.87
2018-06-27T06:37:22.186Z,4.27
2018-06-27T06:39:50.799Z,3.40
2018-06-27T06:42:19.352Z,3.47
2018-06-27T06:44:47.768Z,3.80
2018-06-27T06:47:16.239Z,4.00
2018-06-27T06:49:44.648Z,5.40
2018-06-27T06:52:13.065Z,5.17
2018-06-27T06:54:41.076Z,4.47
2018-06-27T06:57:09.609Z,5.23
2018-06-27T06:59:38.010Z,12.03
2018-06-27T07:02:06.569Z,18.37
2018-06-27T07:04:34.890Z,18.70
2018-06-27T07:07:03.472Z,22.67
2018-06-27T07:09:31.882Z,23.33
2018-06-27T07:12:00.428Z,21.27
2018-06-27T07:15:11.197Z,20.63
2018-06-27T07:17:39.568Z,20.87
2018-06-27T07:20:07.995Z,20.53
2018-06-27T07:22:36.449Z,17.37
2018-06-27T07:25:04.920Z,19.53
2018-06-27T07:27:33.470Z,21.57
2018-06-27T07:30:01.972Z,16.50
2018-06-27T07:32:30.515Z,18.07
2018-06-27T07:34:58.913Z,16.30
2018-06-27T07:37:27.516Z,13.10
2018-06-27T07:39:55.989Z,18.03
2018-06-27T07:42:24.582Z,14.73
2018-06-27T07:44:53.107Z,14.40
2018-06-27T07:47:21.562Z,9.37
2018-06-27T07:49:50.332Z,8.10
2018-06-27T07:52:18.848Z,8.50
2018-06-27T07:54:47.259Z,8.83
2018-06-27T07:57:15.777Z,5.43
2018-06-27T07:59:44.245Z,5.93
2018-06-27T08:02:12.828Z,4.70
2018-06-27T08:04:41.368Z,5.73
2018-06-27T08:07:09.914Z,5.50
2018-06-27T08:09:38.483Z,4.80
2018-06-27T08:12:06.980Z,4.43
2018-06-27T08:14:55.421Z,5.50
2018-06-27T08:17:23.816Z,4.47
2018-06-27T08:19:52.138Z,3.13
2018-06-27T08:22:20.685Z,5.33
2018-06-27T08:24:49.171Z,5.90
2018-06-27T08:27:17.639Z,2.90
2018-06-27T08:29:45.913Z,2.20
2018-06-27T08:32:14.250Z,2.87
2018-06-27T08:34:42.689Z,2.87
2018-06-27T08:37:11.109Z,4.07
2018-06-27T08:39:39.478Z,3.97
2018-06-27T08:42:07.909Z,3.97
2018-06-27T08:44:36.301Z,5.17
2018-06-27T08:47:04.873Z,4.33
2018-06-27T08:49:33.353Z,4.90
2018-06-27T08:52:01.762Z,3.80
2018-06-27T08:54:30.341Z,6.60
2018-06-27T08:56:58.877Z,3.50
2018-06-27T08:59:27.188Z,3.60
2018-06-27T09:01:55.618Z,2.80
2018-06-27T09:04:24.180Z,3.67
2018-06-27T09:06:52.761Z,2.47
2018-06-27T09:09:21.305Z,2.70
2018-06-27T09:11:49.805Z,3.40
2018-06-27T09:14:34.482Z,2.37
2018-06-27T09:17:03.030Z,2.63
2018-06-27T09:19:31.204Z,4.43
2018-06-27T09:21:59.693Z,2.23
2018-06-27T09:24:28.200Z,2.87
2018-06-27T09:26:56.709Z,2.90
2018-06-27T09:29:25.123Z,2.77
2018-06-27T09:31:53.515Z,3.50
2018-06-27T09:34:21.956Z,2.03
2018-06-27T09:36:50.299Z,2.70
2018-06-27T09:39:18.757Z,2.23
2018-06-27T09:41:47.293Z,2.70
2018-06-27T09:44:15.718Z,3.23
2018-06-27T09:46:44.273Z,1.67
2018-06-27T09:49:12.689Z,1.63
2018-06-27T09:51:40.828Z,2.07
2018-06-27T09:54:09.244Z,1.43
2018-06-27T09:56:37.315Z,1.93
2018-06-27T09:59:05.760Z,1.70
2018-06-27T10:01:34.477Z,1.93
2018-06-27T10:04:02.925Z,1.63
2018-06-27T10:06:31.366Z,2.70
2018-06-27T10:08:59.847Z,2.13
2018-06-27T10:11:28.352Z,3.07
2018-06-27T10:13:56.718Z,1.73
2018-06-27T10:16:25.245Z,3.83
2018-06-27T10:18:53.685Z,4.33
2018-06-27T10:21:22.163Z,2.43
2018-06-27T10:23:50.661Z,1.97
2018-06-27T10:26:19.058Z,2.00
2018-06-27T10:28:47.560Z,2.50
2018-06-27T10:31:16.130Z,2.50
2018-06-27T10:33:44.659Z,2.77
2018-06-27T10:36:13.176Z,5.23
2018-06-27T10:38:41.632Z,2.10
2018-06-27T10:41:10.064Z,2.83
2018-06-27T10:43:38.486Z,1.80
2018-06-27T10:46:07.065Z,1.57
2018-06-27T10:48:35.629Z,2.73
2018-06-27T10:51:05.852Z,1.70
2018-06-27T10:53:34.336Z,1.77
2018-06-27T10:56:04.427Z,1.90
2018-06-27T10:58:32.942Z,2.03
2018-06-27T11:01:03.058Z,2.00
2018-06-27T11:03:31.546Z,2.43
2018-06-27T11:05:59.953Z,2.40
2018-06-27T11:08:28.334Z,4.90
2018-06-27T11:10:56.779Z,4.10
2018-06-27T11:13:25.273Z,5.13
2018-06-27T11:16:03.953Z,2.00
2018-06-27T11:18:32.333Z,1.93
2018-06-27T11:21:00.771Z,1.97
2018-06-27T11:23:29.306Z,3.27
2018-06-27T11:25:57.473Z,1.97
2018-06-27T11:28:25.861Z,2.23
2018-06-27T11:30:53.832Z,2.10
2018-06-27T11:33:22.335Z,2.23
2018-06-27T11:35:50.826Z,2.13
2018-06-27T11:38:19.372Z,2.20
2018-06-27T11:40:47.877Z,2.83
2018-06-27T11:43:16.472Z,1.70
2018-06-27T11:45:44.547Z,1.70
2018-06-27T11:48:13.119Z,2.17
2018-06-27T11:50:41.470Z,1.73
2018-06-27T11:53:09.857Z,1.90
2018-06-27T11:55:38.376Z,1.47
2018-06-27T11:58:06.997Z,1.90
2018-06-27T12:00:35.608Z,1.60
2018-06-27T12:03:04.272Z,2.57
2018-06-27T12:05:32.653Z,1.50
2018-06-27T12:08:01.067Z,2.03
2018-06-27T12:10:29.538Z,2.47
2018-06-27T12:12:57.932Z,3.60
2018-06-27T12:16:12.252Z,1.60
2018-06-27T12:18:40.806Z,1.50
2018-06-27T12:21:09.114Z,1.70
2018-06-27T12:23:37.671Z,1.67
2018-06-27T12:26:06.119Z,1.70
2018-06-27T12:28:34.582Z,1.63
2018-06-27T12:31:04.926Z,2.20
2018-06-27T12:33:33.405Z,1.63
2018-06-27T12:36:03.288Z,1.52
2018-06-27T12:38:31.690Z,2.20
2018-06-27T12:41:00.233Z,2.20
2018-06-27T12:43:28.657Z,1.40
2018-06-27T12:45:57.162Z,1.50
2018-06-27T12:48:25.673Z,1.40
2018-06-27T12:50:54.221Z,1.53
2018-06-27T12:53:22.722Z,1.50
2018-06-27T12:55:51.274Z,1.67
2018-06-27T12:58:19.861Z,1.40
2018-06-27T13:00:48.329Z,1.67
2018-06-27T13:03:16.795Z,2.40
2018-06-27T13:05:45.396Z,1.67
2018-06-27T13:08:13.880Z,1.72
2018-06-27T13:10:42.368Z,2.80
2018-06-27T13:13:10.817Z,1.40
2018-06-27T13:16:25.184Z,1.73
2018-06-27T13:18:53.621Z,1.35
2018-06-27T13:21:22.124Z,1.37
2018-06-27T13:23:50.680Z,1.30
2018-06-27T13:26:19.111Z,1.30
2018-06-27T13:28:47.473Z,1.50
2018-06-27T13:31:16.008Z,1.10
2018-06-27T13:33:44.512Z,0.93
2018-06-27T13:36:12.956Z,1.20
2018-06-27T13:38:41.545Z,1.23
2018-06-27T13:41:09.985Z,1.40
2018-06-27T13:43:38.596Z,1.43
2018-06-27T13:46:06.961Z,1.17
2018-06-27T13:48:35.388Z,0.95
2018-06-27T13:51:05.108Z,0.98
2018-06-27T13:53:33.551Z,1.40
2018-06-27T13:56:03.177Z,1.20
2018-06-27T13:58:31.683Z,1.30
2018-06-27T14:00:59.957Z,4.42
2018-06-27T14:03:28.318Z,1.47
2018-06-27T14:05:56.824Z,1.15
2018-06-27T14:08:25.241Z,3.70
2018-06-27T14:10:53.754Z,1.20
2018-06-27T14:13:23.200Z,1.47
2018-06-27T14:16:39.333Z,1.27
2018-06-27T14:19:07.782Z,0.90
2018-06-27T14:21:36.359Z,1.13
2018-06-27T14:24:04.927Z,1.50
2018-06-27T14:26:33.338Z,1.30
2018-06-27T14:29:01.735Z,1.00
2018-06-27T14:31:30.106Z,1.00
2018-06-27T14:33:58.560Z,2.85
2018-06-27T14:36:27.062Z,1.20
2018-06-27T14:38:55.513Z,1.65
2018-06-27T14:41:24.172Z,1.03
2018-06-27T14:43:52.695Z,1.75
2018-06-27T14:46:21.366Z,1.15
2018-06-27T14:48:49.886Z,1.07
2018-06-27T14:51:18.405Z,1.00
2018-06-27T14:53:46.854Z,1.00
2018-06-27T14:56:15.404Z,1.20
2018-06-27T14:58:43.919Z,1.05
2018-06-27T15:01:12.309Z,1.02
2018-06-27T15:03:40.826Z,0.85
2018-06-27T15:06:09.333Z,1.47
2018-06-27T15:08:37.865Z,1.52
2018-06-27T15:11:07.284Z,1.10
2018-06-27T15:13:35.861Z,0.80
2018-06-27T15:16:50.846Z,0.97
2018-06-27T15:19:19.677Z,1.90
2018-06-27T15:21:48.573Z,0.80
2018-06-27T15:24:17.450Z,1.00
2018-06-27T15:26:46.064Z,0.70
2018-06-27T15:29:14.588Z,1.10
2018-06-27T15:31:43.226Z,0.90
2018-06-27T15:34:11.995Z,0.90
2018-06-27T15:36:40.367Z,0.90
2018-06-27T15:39:10.075Z,0.90
2018-06-27T15:41:38.986Z,1.00
2018-06-27T15:44:07.678Z,1.43
2018-06-27T15:46:36.748Z,1.00
2018-06-27T15:49:07.195Z,1.97
2018-06-27T15:51:36.057Z,1.20
2018-06-27T15:54:04.826Z,1.40
2018-06-27T15:56:33.543Z,1.87
2018-06-27T15:59:02.004Z,1.60
2018-06-27T16:01:30.488Z,1.73
2018-06-27T16:03:59.061Z,1.70
2018-06-27T16:06:27.580Z,3.00
2018-06-27T16:08:55.953Z,4.20
2018-06-27T16:11:26.356Z,3.33
2018-06-27T16:13:54.791Z,1.90
2018-06-27T16:16:56.081Z,2.83
2018-06-27T16:19:24.703Z,1.90
2018-06-27T16:21:53.134Z,1.62
2018-06-27T16:24:21.506Z,4.12
2018-06-27T16:26:50.015Z,2.85
2018-06-27T16:29:18.517Z,1.87
2018-06-27T16:31:46.972Z,3.20
2018-06-27T16:34:15.638Z,2.93
2018-06-27T16:36:44.023Z,2.80
2018-06-27T16:39:12.627Z,2.00
2018-06-27T16:41:41.139Z,4.00
2018-06-27T16:44:09.622Z,2.10
2018-06-27T16:46:38.022Z,4.37
2018-06-27T16:49:07.099Z,3.23
2018-06-27T16:51:35.698Z,3.13
2018-06-27T16:54:04.213Z,3.27
2018-06-27T16:56:32.654Z,2.00
2018-06-27T16:59:01.098Z,2.20
2018-06-27T17:01:30.046Z,1.97
2018-06-27T17:03:57.988Z,1.90
2018-06-27T17:06:26.564Z,2.23
2018-06-27T17:08:55.066Z,2.07
2018-06-27T17:11:24.937Z,5.33
2018-06-27T17:13:53.366Z,5.30
2018-06-27T17:17:09.393Z,1.87
2018-06-27T17:19:37.821Z,1.97
2018-06-27T17:22:06.300Z,3.90
2018-06-27T17:24:34.781Z,2.43
2018-06-27T17:27:03.256Z,3.27
2018-06-27T17:29:31.698Z,2.00
2018-06-27T17:32:00.248Z,1.50
2018-06-27T17:34:31.770Z,1.80
2018-06-27T17:37:07.951Z,1.60
2018-06-27T17:39:36.990Z,3.57
2018-06-27T17:42:41.882Z,1.70
2018-06-27T17:45:10.271Z,2.00
2018-06-27T17:47:38.850Z,1.80
2018-06-27T17:50:34.359Z,1.70
2018-06-27T17:53:22.175Z,2.00
2018-06-27T17:55:52.524Z,1.60
2018-06-27T17:58:22.538Z,2.73
2018-06-27T18:00:51.792Z,1.53
2018-06-27T18:03:21.125Z,1.90
2018-06-27T18:05:50.321Z,2.23
2018-06-27T18:08:19.573Z,2.10
2018-06-27T18:10:48.741Z,3.30
2018-06-27T18:13:17.972Z,1.50
2018-06-27T18:19:08.673Z,1.90
2018-06-27T18:21:48.488Z,1.80
2018-06-27T18:24:17.825Z,2.50
2018-06-27T18:26:47.210Z,3.80
2018-06-27T18:29:16.488Z,1.87
2018-06-27T18:31:45.650Z,1.83
2018-06-27T18:34:14.845Z,2.90
2018-06-27T18:36:45.112Z,1.80
2018-06-27T18:39:14.465Z,1.67
2018-06-27T18:41:44.150Z,2.00
2018-06-27T18:44:13.475Z,1.43
2018-06-27T18:46:42.932Z,5.10
2018-06-27T18:49:12.113Z,5.13
2018-06-27T18:51:41.553Z,5.53
2018-06-27T18:54:10.945Z,6.20
2018-06-27T18:56:40.069Z,4.07
2018-06-27T18:59:09.245Z,5.30
2018-06-27T19:01:38.660Z,6.80
2018-06-27T19:04:07.914Z,14.40
2018-06-27T19:06:37.660Z,7.80
2018-06-27T19:09:11.371Z,4.73
2018-06-27T19:11:41.315Z,5.93
2018-06-27T19:14:10.615Z,6.93
2018-06-27T19:17:34.409Z,4.70
2018-06-27T19:20:03.937Z,4.73
2018-06-27T19:22:34.148Z,6.20
2018-06-27T19:25:03.923Z,7.37
2018-06-27T19:27:33.320Z,3.43
2018-06-27T19:30:03.263Z,4.37
2018-06-27T19:32:32.518Z,3.47
2018-06-27T19:35:01.796Z,3.57
2018-06-27T19:37:30.985Z,5.40
2018-06-27T19:40:01.122Z,4.87
2018-06-27T19:42:29.848Z,3.13
2018-06-27T19:44:59.170Z,4.57
2018-06-27T19:47:28.514Z,3.70
2018-06-27T19:49:57.602Z,3.93
2018-06-27T19:52:26.315Z,3.73
2018-06-27T19:54:55.471Z,4.27
2018-06-27T19:57:24.803Z,3.30
2018-06-27T19:59:54.168Z,3.40
2018-06-27T20:02:23.306Z,4.03
2018-06-27T20:04:52.672Z,3.93
2018-06-27T20:07:22.116Z,3.57
2018-06-27T20:09:51.400Z,4.17
2018-06-27T20:12:20.007Z,2.43
2018-06-27T20:15:23.811Z,2.77
2018-06-27T20:17:55.005Z,2.50
2018-06-27T20:20:26.628Z,2.80
2018-06-27T20:22:56.245Z,2.30
2018-06-27T20:25:50.490Z,2.60
2018-06-27T20:29:02.916Z,4.90
2018-06-27T20:31:32.215Z,2.80
2018-06-27T20:34:01.477Z,3.37
2018-06-27T20:36:30.844Z,1.97
2018-06-27T20:39:00.070Z,2.70
2018-06-27T20:41:29.201Z,2.20
2018-06-27T20:43:58.528Z,2.20
2018-06-27T20:46:27.753Z,4.70
2018-06-27T20:48:57.042Z,7.10
2018-06-27T20:51:26.444Z,2.60
2018-06-27T20:53:55.118Z,2.93
2018-06-27T20:56:24.507Z,2.03
2018-06-27T20:58:53.665Z,2.17
2018-06-27T21:01:22.837Z,4.60
2018-06-27T21:03:58.899Z,3.77
2018-06-27T21:09:47.546Z,3.17
2018-06-27T21:12:16.138Z,2.60
2018-06-27T21:15:26.645Z,2.40
2018-06-27T21:17:55.956Z,2.13
2018-06-27T21:20:25.190Z,5.43
2018-06-27T21:22:53.709Z,2.57
2018-06-27T21:25:22.978Z,2.30
2018-06-27T21:27:51.443Z,3.53
2018-06-27T21:30:20.048Z,3.73
2018-06-27T21:32:48.679Z,2.47
2018-06-27T21:35:17.188Z,4.40
2018-06-27T21:37:45.756Z,4.63
2018-06-27T21:40:14.288Z,2.70
2018-06-27T21:42:43.358Z,2.07
2018-06-27T21:45:12.128Z,2.87
2018-06-27T21:47:41.196Z,4.70
2018-06-27T21:50:10.658Z,4.10
2018-06-27T21:52:39.066Z,1.93
2018-06-27T21:55:07.501Z,3.40
2018-06-27T21:57:36.321Z,2.10
2018-06-27T22:00:06.900Z,4.40
2018-06-27T22:02:35.457Z,1.57
2018-06-27T22:05:04.644Z,1.70
2018-06-27T22:07:33.577Z,1.83
2018-06-27T22:10:02.201Z,1.60
2018-06-27T22:12:30.909Z,2.27
2018-06-27T22:14:59.471Z,2.03
2018-06-27T22:17:27.908Z,3.47
2018-06-27T22:19:56.847Z,1.97
2018-06-27T22:22:25.496Z,2.50
2018-06-27T22:24:54.058Z,1.47
2018-06-27T22:27:22.490Z,1.60
2018-06-27T22:29:50.981Z,1.60
2018-06-27T22:32:19.328Z,1.50
2018-06-27T22:34:47.702Z,1.50
2018-06-27T22:37:16.268Z,1.60
2018-06-27T22:39:44.664Z,1.50
2018-06-27T22:42:13.448Z,1.57
2018-06-27T22:44:41.853Z,1.50
2018-06-27T22:47:10.273Z,1.57
2018-06-27T22:49:38.721Z,1.30
2018-06-27T22:52:07.090Z,1.40
2018-06-27T22:54:35.470Z,1.93
2018-06-27T22:57:03.987Z,1.33
2018-06-27T22:59:32.415Z,1.00
2018-06-27T23:02:00.851Z,2.03
2018-06-27T23:04:29.301Z,1.20
2018-06-27T23:06:57.818Z,1.30
2018-06-27T23:09:25.999Z,1.37
2018-06-27T23:11:54.758Z,1.17
2018-06-27T23:14:23.410Z,1.40
2018-06-27T23:16:51.897Z,1.33
2018-06-27T23:19:20.447Z,1.20
2018-06-27T23:21:48.868Z,2.73
2018-06-27T23:24:17.362Z,1.70
2018-06-27T23:26:45.825Z,1.53
2018-06-27T23:29:14.415Z,2.47
2018-06-27T23:31:42.848Z,1.10
2018-06-27T23:34:11.379Z,1.53
2018-06-27T23:36:39.834Z,1.37
2018-06-27T23:39:10.733Z,1.20
2018-06-27T23:41:39.401Z,1.30
2018-06-27T23:44:07.821Z,1.30
2018-06-27T23:46:36.260Z,0.90
2018-06-27T23:49:05.196Z,1.70
2018-06-27T23:51:33.631Z,1.60
2018-06-27T23:54:01.945Z,1.40
2018-06-27T23:56:30.444Z,1.30
2018-06-27T23:58:58.795Z,1.57
